createdAt,value
2023-05-06T00:02:09.549Z,97819.26
2023-05-06T00:04:40.634Z,97823.58
2023-05-06T00:07:10.743Z,97824.67
2023-05-06T00:09:40.909Z,97828.08
2023-05-06T00:12:10.947Z,97830.02
2023-05-06T00:14:41.147Z,97837.52
2023-05-06T00:17:11.398Z,97837.68
2023-05-06T00:19:42.015Z,97836.34
2023-05-06T00:22:12.359Z,97839.75
2023-05-06T00:24:42.253Z,97838.09
2023-05-06T00:27:12.527Z,97839.70
2023-05-06T00:29:55.661Z,97838.05
2023-05-06T00:32:25.637Z,97841.45
2023-05-06T00:34:55.537Z,97834.21
2023-05-06T00:37:25.740Z,97831.18
2023-05-06T00:39:55.867Z,97830.88
2023-05-06T00:42:25.917Z,97829.71
2023-05-06T00:44:55.751Z,97830.88
2023-05-06T00:47:26.467Z,97829.08
2023-05-06T00:49:56.563Z,97822.55
2023-05-06T00:52:26.496Z,97822.95
2023-05-06T00:54:57.349Z,97816.77
2023-05-06T00:57:27.416Z,97812.02
2023-05-06T00:59:57.415Z,97806.29
2023-05-06T01:02:39.613Z,97804.65
2023-05-06T01:05:18.321Z,97800.35
2023-05-06T01:07:59.873Z,97795.31
2023-05-06T01:10:37.804Z,97791.01
2023-05-06T01:13:15.425Z,97798.59
2023-05-06T01:15:48.032Z,97797.25
2023-05-06T01:18:22.270Z,97797.83
2023-05-06T01:20:53.981Z,97801.78
2023-05-06T01:23:23.759Z,97797.02
2023-05-06T01:25:53.985Z,97794.95
2023-05-06T01:28:23.951Z,97797.98
2023-05-06T01:31:01.525Z,97788.17
2023-05-06T01:33:38.633Z,97791.48
2023-05-06T01:36:16.569Z,97793.93
2023-05-06T01:38:53.378Z,97792.94
2023-05-06T01:41:25.413Z,97792.11
2023-05-06T01:43:55.592Z,97793.52
2023-05-06T01:46:29.102Z,97787.80
2023-05-06T01:49:05.422Z,97786.84
2023-05-06T01:51:35.813Z,97784.13
2023-05-06T01:54:06.205Z,97780.77
2023-05-06T01:56:36.398Z,97784.84
2023-05-06T01:59:06.943Z,97786.84
2023-05-06T02:01:37.056Z,97787.20
2023-05-06T02:04:07.353Z,97784.06
2023-05-06T02:06:37.492Z,97785.29
2023-05-06T02:09:08.150Z,97784.97
2023-05-06T02:11:42.967Z,97780.70
2023-05-06T02:14:13.149Z,97781.41
2023-05-06T02:16:43.264Z,97780.91
2023-05-06T02:19:13.362Z,97781.33
2023-05-06T02:21:43.312Z,97774.59
2023-05-06T02:24:15.511Z,97774.83
2023-05-06T02:26:45.384Z,97771.70
2023-05-06T02:29:15.291Z,97774.81
2023-05-06T02:31:45.282Z,97776.73
2023-05-06T02:34:15.147Z,97778.67
2023-05-06T02:36:46.401Z,97775.54
2023-05-06T02:39:16.394Z,97774.38
2023-05-06T02:41:46.193Z,97774.79
2023-05-06T02:44:16.121Z,97778.80
2023-05-06T02:46:46.132Z,97775.75
2023-05-06T02:49:16.172Z,97775.86
2023-05-06T02:51:46.776Z,97775.11
2023-05-06T02:54:16.607Z,97773.21
2023-05-06T02:56:46.561Z,97773.90
2023-05-06T02:59:17.428Z,97773.37
2023-05-06T03:01:47.945Z,97765.36
2023-05-06T03:04:18.251Z,97765.21
2023-05-06T03:06:48.202Z,97763.18
2023-05-06T03:09:18.260Z,97764.61
2023-05-06T03:11:48.559Z,97758.05
2023-05-06T03:14:19.013Z,97758.94
2023-05-06T03:16:48.891Z,97756.73
2023-05-06T03:19:19.345Z,97759.99
2023-05-06T03:21:49.331Z,97766.43
2023-05-06T03:24:21.322Z,97763.52
2023-05-06T03:26:51.684Z,97766.08
2023-05-06T03:29:22.695Z,97766.52
2023-05-06T03:31:52.784Z,97761.53
2023-05-06T03:34:25.149Z,97759.65
2023-05-06T03:36:55.148Z,97758.77
2023-05-06T03:39:25.221Z,97756.46
2023-05-06T03:41:56.069Z,97755.61
2023-05-06T03:44:26.646Z,97755.25
2023-05-06T03:46:56.518Z,97761.13
2023-05-06T03:49:26.735Z,97764.84
2023-05-06T03:51:56.799Z,97770.36
2023-05-06T03:54:30.839Z,97770.00
2023-05-06T03:57:01.070Z,97769.44
2023-05-06T03:59:31.360Z,97766.02
2023-05-06T04:02:01.937Z,97764.75
2023-05-06T04:04:32.591Z,97766.27
2023-05-06T04:07:03.733Z,97762.41
2023-05-06T04:09:34.364Z,97760.84
2023-05-06T04:12:07.404Z,97762.87
2023-05-06T04:14:38.149Z,97762.36
2023-05-06T04:17:08.679Z,97760.93
2023-05-06T04:19:38.970Z,97757.83
2023-05-06T04:22:08.974Z,97756.09
2023-05-06T04:24:41.509Z,97760.76
2023-05-06T04:27:12.516Z,97758.61
2023-05-06T04:29:46.658Z,97757.78
2023-05-06T04:32:17.707Z,97757.95
2023-05-06T04:34:48.399Z,97759.42
2023-05-06T04:37:22.820Z,97756.24
2023-05-06T04:40:05.676Z,97754.73
2023-05-06T04:42:36.356Z,97765.48
2023-05-06T04:45:13.037Z,97772.95
2023-05-06T04:47:47.132Z,97777.64
2023-05-06T04:50:17.499Z,97777.38
2023-05-06T04:52:47.572Z,97773.03
2023-05-06T04:55:18.868Z,97771.00
2023-05-06T04:57:54.188Z,97771.84
2023-05-06T05:00:25.918Z,97766.36
2023-05-06T05:02:57.032Z,97762.38
2023-05-06T05:05:28.281Z,97764.23
2023-05-06T05:07:58.796Z,97761.45
2023-05-06T05:10:30.046Z,97764.36
2023-05-06T05:13:00.635Z,97770.74
2023-05-06T05:15:31.606Z,97765.50
2023-05-06T05:18:01.752Z,97765.33
2023-05-06T05:20:32.502Z,97764.98
2023-05-06T05:23:03.846Z,97762.55
2023-05-06T05:25:35.233Z,97767.23
2023-05-06T05:28:05.302Z,97761.42
2023-05-06T05:30:35.996Z,97759.69
2023-05-06T05:33:06.059Z,97754.29
2023-05-06T05:35:36.702Z,97756.56
2023-05-06T05:38:07.309Z,97753.11
2023-05-06T05:40:38.999Z,97752.27
2023-05-06T05:43:09.550Z,97750.86
2023-05-06T05:45:41.160Z,97747.95
2023-05-06T05:48:12.261Z,97745.33
2023-05-06T05:50:42.375Z,97748.14
2023-05-06T05:53:13.042Z,97752.63
2023-05-06T05:55:44.521Z,97751.97
2023-05-06T05:58:14.631Z,97749.14
2023-05-06T06:00:45.454Z,97749.64
2023-05-06T06:03:15.909Z,97751.42
2023-05-06T06:05:48.940Z,97747.14
2023-05-06T06:08:19.810Z,97748.13
2023-05-06T06:10:50.455Z,97745.41
2023-05-06T06:13:25.259Z,97739.75
2023-05-06T06:15:57.463Z,97737.77
2023-05-06T06:18:27.707Z,97727.96
2023-05-06T06:20:57.891Z,97728.64
2023-05-06T06:23:27.993Z,97730.34
2023-05-06T06:25:58.538Z,97727.19
2023-05-06T06:28:28.338Z,97727.45
2023-05-06T06:30:58.489Z,97730.88
2023-05-06T06:33:29.212Z,97730.27
2023-05-06T06:35:59.177Z,97726.98
2023-05-06T06:38:29.323Z,97721.69
2023-05-06T06:40:59.150Z,97719.27
2023-05-06T06:43:29.166Z,97723.05
2023-05-06T06:46:01.290Z,97729.67
2023-05-06T06:48:32.068Z,97726.23
2023-05-06T06:51:02.019Z,97729.32
2023-05-06T06:53:32.641Z,97726.30
2023-05-06T06:56:02.656Z,97725.36
2023-05-06T06:58:34.789Z,97722.06
2023-05-06T07:01:05.376Z,97717.11
2023-05-06T07:03:35.595Z,97714.23
2023-05-06T07:06:06.422Z,97712.85
2023-05-06T07:08:37.715Z,97709.15
2023-05-06T07:11:07.823Z,97709.52
2023-05-06T07:13:38.514Z,97702.17
2023-05-06T07:16:08.537Z,97700.00
2023-05-06T07:18:38.428Z,97701.77
2023-05-06T07:21:08.469Z,97700.92
2023-05-06T07:23:38.353Z,97701.66
2023-05-06T07:26:09.232Z,97696.78
2023-05-06T07:28:39.189Z,97702.91
2023-05-06T07:31:09.279Z,97696.55
2023-05-06T07:33:40.618Z,97699.14
2023-05-06T07:36:10.954Z,97694.49
2023-05-06T07:38:44.208Z,97691.27
2023-05-06T07:41:14.676Z,97690.44
2023-05-06T07:43:45.608Z,97686.27
2023-05-06T07:46:15.538Z,97688.70
2023-05-06T07:48:45.785Z,97694.09
2023-05-06T07:51:17.891Z,97700.19
2023-05-06T07:53:48.306Z,97697.17
2023-05-06T07:56:19.307Z,97692.70
2023-05-06T07:58:49.561Z,97692.98
2023-05-06T08:01:19.718Z,97694.40
2023-05-06T08:03:52.764Z,97696.27
2023-05-06T08:06:23.177Z,97695.96
2023-05-06T08:08:53.530Z,97701.86
2023-05-06T08:11:23.995Z,97693.05
2023-05-06T08:13:54.235Z,97688.48
2023-05-06T08:16:25.818Z,97683.77
2023-05-06T08:18:56.212Z,97677.56
2023-05-06T08:21:26.753Z,97668.67
2023-05-06T08:23:56.870Z,97666.35
2023-05-06T08:26:27.208Z,97658.50
2023-05-06T08:28:59.112Z,97657.41
2023-05-06T08:31:29.883Z,97651.73
2023-05-06T08:34:00.431Z,97649.71
2023-05-06T08:36:30.632Z,97642.45
2023-05-06T08:39:00.583Z,97635.04
2023-05-06T08:41:33.193Z,97635.77
2023-05-06T08:44:03.853Z,97635.33
2023-05-06T08:46:33.885Z,97633.45
2023-05-06T08:49:03.968Z,97639.61
2023-05-06T08:51:34.022Z,97629.50
2023-05-06T08:54:04.888Z,97634.73
2023-05-06T08:56:37.007Z,97633.84
2023-05-06T08:59:08.936Z,97629.07
2023-05-06T09:01:39.069Z,97630.11
2023-05-06T09:04:10.642Z,97631.30
2023-05-06T09:06:41.504Z,97627.41
2023-05-06T09:09:12.923Z,97624.66
2023-05-06T09:11:43.177Z,97632.27
2023-05-06T09:14:15.613Z,97624.91
2023-05-06T09:16:47.248Z,97625.09
2023-05-06T09:19:18.129Z,97623.27
2023-05-06T09:21:49.860Z,97620.17
2023-05-06T09:24:22.779Z,97614.89
2023-05-06T09:26:55.425Z,97617.40
2023-05-06T09:29:25.696Z,97619.02
2023-05-06T09:31:56.124Z,97621.63
2023-05-06T09:34:27.838Z,97614.55
2023-05-06T09:36:58.475Z,97616.45
2023-05-06T09:39:28.898Z,97611.09
2023-05-06T09:41:59.845Z,97609.51
2023-05-06T09:44:30.739Z,97601.30
2023-05-06T09:47:02.055Z,97608.04
2023-05-06T09:49:32.094Z,97602.27
2023-05-06T09:52:02.177Z,97599.23
2023-05-06T09:54:33.702Z,97594.13
2023-05-06T09:57:05.136Z,97590.97
2023-05-06T09:59:36.491Z,97584.78
2023-05-06T10:02:08.582Z,97574.08
2023-05-06T10:04:40.992Z,97574.70
2023-05-06T10:07:12.517Z,97571.77
2023-05-06T10:09:43.485Z,97564.95
2023-05-06T10:12:15.709Z,97561.09
2023-05-06T10:14:45.938Z,97555.10
2023-05-06T10:17:19.024Z,97550.52
2023-05-06T10:19:51.624Z,97539.31
2023-05-06T10:22:31.249Z,97538.81
2023-05-06T10:25:05.757Z,97534.15
2023-05-06T10:27:40.395Z,97528.23
2023-05-06T10:30:14.730Z,97520.31
2023-05-06T10:32:46.451Z,97522.82
2023-05-06T10:35:27.233Z,97514.36
2023-05-06T10:38:03.883Z,97512.02
2023-05-06T10:40:34.248Z,97501.60
2023-05-06T10:43:29.082Z,97501.05
2023-05-06T10:46:04.128Z,97489.27
2023-05-06T10:48:35.330Z,97484.77
2023-05-06T10:51:28.307Z,97475.73
2023-05-06T10:54:06.515Z,97474.33
2023-05-06T10:56:37.786Z,97465.61
2023-05-06T10:59:09.726Z,97463.13
2023-05-06T11:01:42.387Z,97463.52
2023-05-06T11:04:15.591Z,97465.29
2023-05-06T11:06:48.206Z,97458.45
2023-05-06T11:09:22.195Z,97456.54
2023-05-06T11:12:00.136Z,97453.54
2023-05-06T11:14:35.208Z,97452.02
2023-05-06T11:17:06.891Z,97447.20
2023-05-06T11:19:38.267Z,97448.70
2023-05-06T11:22:08.701Z,97441.70
2023-05-06T11:24:42.080Z,97440.25
2023-05-06T11:27:19.432Z,97446.83
2023-05-06T11:29:49.203Z,97457.30
2023-05-06T11:32:25.926Z,97469.48
2023-05-06T11:35:44.335Z,97486.18
2023-05-06T11:39:24.549Z,97512.92
2023-05-06T11:43:05.726Z,97537.05
2023-05-06T11:46:33.612Z,97544.37
2023-05-06T11:49:16.419Z,97542.44
2023-05-06T11:51:58.178Z,97545.90
2023-05-06T11:54:29.249Z,97549.70
2023-05-06T11:56:59.020Z,97553.39
2023-05-06T12:00:26.048Z,97556.06
2023-05-06T12:03:52.041Z,97560.92
2023-05-06T12:14:36.191Z,97559.80
2023-05-06T12:17:18.221Z,97552.09
2023-05-06T12:19:52.401Z,97544.88
2023-05-06T12:22:31.532Z,97528.15
2023-05-06T12:25:15.184Z,97530.33
2023-05-06T12:27:45.224Z,97538.22
2023-05-06T12:30:15.868Z,97535.51
2023-05-06T12:33:49.277Z,97522.26
2023-05-06T12:37:54.116Z,97510.70
2023-05-06T12:41:35.760Z,97530.45
2023-05-06T12:45:16.747Z,97523.69
2023-05-06T12:48:49.590Z,97515.21
2023-05-06T12:59:39.622Z,97503.84
2023-05-06T13:02:09.962Z,97507.08
2023-05-06T13:04:40.472Z,97495.02
2023-05-06T13:07:10.429Z,97475.02
2023-05-06T13:09:40.476Z,97475.42
2023-05-06T13:12:10.629Z,97469.11
2023-05-06T13:14:40.693Z,97464.33
2023-05-06T13:17:10.819Z,97452.42
2023-05-06T13:19:41.011Z,97448.64
2023-05-06T13:22:11.093Z,97445.11
2023-05-06T13:24:41.209Z,97447.33
2023-05-06T13:27:11.339Z,97438.89
2023-05-06T13:29:41.458Z,97436.23
2023-05-06T13:32:14.022Z,97432.21
2023-05-06T13:34:44.189Z,97429.31
2023-05-06T13:37:14.370Z,97426.66
2023-05-06T13:39:44.370Z,97425.25
2023-05-06T13:42:14.476Z,97421.01
2023-05-06T13:44:44.580Z,97415.89
2023-05-06T13:47:15.130Z,97410.64
2023-05-06T13:49:45.515Z,97403.65
2023-05-06T13:52:15.561Z,97398.04
2023-05-06T13:54:45.933Z,97396.64
2023-05-06T13:57:16.036Z,97401.75
2023-05-06T13:59:49.233Z,97408.36
2023-05-06T14:02:19.586Z,97416.91
2023-05-06T14:04:49.653Z,97417.97
2023-05-06T14:07:19.997Z,97419.06
2023-05-06T14:13:31.370Z,97426.20
2023-05-06T14:16:01.365Z,97423.45
2023-05-06T14:18:34.828Z,97420.77
2023-05-06T14:21:05.656Z,97418.51
2023-05-06T14:23:36.258Z,97412.79
2023-05-06T14:26:06.267Z,97404.30
2023-05-06T14:28:36.178Z,97404.08
2023-05-06T14:39:02.703Z,97403.27
2023-05-06T14:42:22.350Z,97401.34
2023-05-06T14:45:45.016Z,97410.47
2023-05-06T14:49:12.661Z,97431.86
2023-05-06T14:52:54.997Z,97431.92
2023-05-06T14:55:59.370Z,97432.77
2023-05-06T14:58:29.251Z,97417.77
2023-05-06T15:00:59.368Z,97421.42
2023-05-06T15:03:29.365Z,97418.42
2023-05-06T15:05:59.424Z,97418.59
2023-05-06T15:08:29.375Z,97420.17
2023-05-06T15:11:00.190Z,97414.77
2023-05-06T15:13:31.079Z,97418.02
2023-05-06T15:16:01.214Z,97413.55
2023-05-06T15:18:31.248Z,97414.38
2023-05-06T15:21:01.343Z,97411.46
2023-05-06T15:23:32.586Z,97412.85
2023-05-06T15:26:02.454Z,97413.40
2023-05-06T15:28:34.342Z,97414.41
2023-05-06T15:31:04.512Z,97414.80
2023-05-06T15:33:34.540Z,97415.81
2023-05-06T15:36:04.855Z,97417.24
2023-05-06T15:38:59.914Z,97414.65
2023-05-06T15:41:32.149Z,97414.92
2023-05-06T15:44:06.509Z,97409.94
2023-05-06T15:46:40.101Z,97410.83
2023-05-06T15:49:45.622Z,97411.68
2023-05-06T15:52:04.365Z,97408.93
2023-05-06T15:54:37.326Z,97409.91
2023-05-06T15:57:10.240Z,97408.21
2023-05-06T15:59:44.273Z,97408.09
2023-05-06T16:04:53.165Z,97395.05
2023-05-06T16:07:25.324Z,97402.08
2023-05-06T16:09:58.039Z,97401.09
2023-05-06T16:12:32.557Z,97405.06
2023-05-06T16:15:04.429Z,97408.05
2023-05-06T16:17:37.628Z,97407.07
2023-05-06T16:20:12.914Z,97406.91
2023-05-06T16:22:52.522Z,97399.44
2023-05-06T16:25:23.431Z,97401.77
2023-05-06T16:27:56.046Z,97397.71
2023-05-06T16:30:26.794Z,97398.72
2023-05-06T16:32:57.117Z,97401.60
2023-05-06T16:35:31.202Z,97406.76
2023-05-06T16:38:07.889Z,97411.86
2023-05-06T16:40:48.415Z,97406.80
2023-05-06T16:43:26.159Z,97405.04
2023-05-06T16:45:58.586Z,97406.55
2023-05-06T16:48:31.688Z,97410.17
2023-05-06T16:51:02.358Z,97413.95
2023-05-06T16:53:35.802Z,97415.65
2023-05-06T16:56:08.823Z,97413.89
2023-05-06T16:58:40.684Z,97413.92
2023-05-06T17:01:12.102Z,97414.27
2023-05-06T17:03:44.842Z,97415.84
2023-05-06T17:06:19.730Z,97414.52
2023-05-06T17:08:51.389Z,97413.20
2023-05-06T17:11:21.353Z,97415.08
2023-05-06T17:13:55.242Z,97415.58
2023-05-06T17:16:25.554Z,97413.29
2023-05-06T17:18:56.768Z,97416.09
2023-05-06T17:21:27.523Z,97413.27
2023-05-06T17:24:01.463Z,97414.36
2023-05-06T17:26:33.991Z,97418.42
2023-05-06T17:29:06.074Z,97420.60
2023-05-06T17:31:38.201Z,97419.56
2023-05-06T17:34:10.035Z,97423.52
2023-05-06T17:36:42.861Z,97425.41
2023-05-06T17:39:15.832Z,97428.05
2023-05-06T17:41:46.363Z,97428.45
2023-05-06T17:44:17.900Z,97425.13
2023-05-06T17:46:49.770Z,97425.11
2023-05-06T17:49:23.279Z,97427.45
2023-05-06T17:51:56.741Z,97425.39
2023-05-06T17:54:31.870Z,97423.38
2023-05-06T17:57:03.467Z,97425.67
2023-05-06T17:59:35.550Z,97428.98
2023-05-06T18:02:09.977Z,97430.31
2023-05-06T18:04:41.760Z,97429.80
2023-05-06T18:07:11.974Z,97432.40
2023-05-06T18:09:42.059Z,97439.26
2023-05-06T18:12:12.077Z,97442.80
2023-05-06T18:14:42.269Z,97447.41
2023-05-06T18:17:12.208Z,97448.30
2023-05-06T18:19:42.807Z,97445.67
2023-05-06T18:22:12.807Z,97455.05
2023-05-06T18:24:42.829Z,97463.86
2023-05-06T18:27:13.051Z,97466.17
2023-05-06T18:29:43.039Z,97469.31
2023-05-06T18:32:13.075Z,97466.08
2023-05-06T18:34:43.534Z,97468.90
2023-05-06T18:37:14.734Z,97466.97
2023-05-06T18:39:45.798Z,97465.32
2023-05-06T18:42:17.025Z,97472.66
2023-05-06T18:44:50.707Z,97473.39
2023-05-06T18:47:21.249Z,97472.70
2023-05-06T18:49:53.019Z,97474.48
2023-05-06T18:52:23.528Z,97476.73
2023-05-06T18:54:54.322Z,97474.09
2023-05-06T18:57:26.080Z,97469.85
2023-05-06T18:59:56.815Z,97474.52
2023-05-06T19:02:26.884Z,97475.10
2023-05-06T19:04:58.188Z,97479.21
2023-05-06T19:07:28.155Z,97479.95
2023-05-06T19:09:59.137Z,97487.30
2023-05-06T19:12:29.916Z,97488.08
2023-05-06T19:15:00.130Z,97490.31
2023-05-06T19:17:30.510Z,97495.18
2023-05-06T19:20:04.857Z,97496.11
2023-05-06T19:22:36.538Z,97496.04
2023-05-06T19:25:09.709Z,97495.20
2023-05-06T19:27:39.967Z,97497.21
2023-05-06T19:30:11.884Z,97496.14
2023-05-06T19:32:44.081Z,97496.71
2023-05-06T19:35:16.373Z,97502.48
2023-05-06T19:37:46.664Z,97498.86
2023-05-06T19:40:18.544Z,97500.23
2023-05-06T19:42:54.502Z,97501.45
2023-05-06T19:45:24.432Z,97504.39
2023-05-06T19:47:54.368Z,97505.98
2023-05-06T19:50:24.688Z,97507.25
2023-05-06T19:52:54.943Z,97510.71
2023-05-06T19:55:29.917Z,97516.24
2023-05-06T19:58:05.686Z,97519.30
2023-05-06T20:00:42.244Z,97518.64
2023-05-06T20:03:12.764Z,97528.73
2023-05-06T20:05:43.081Z,97527.89
2023-05-06T20:08:13.462Z,97526.14
2023-05-06T20:10:45.374Z,97525.80
2023-05-06T20:13:17.398Z,97528.56
2023-05-06T20:15:48.276Z,97533.23
2023-05-06T20:18:18.242Z,97531.50
2023-05-06T20:20:48.428Z,97533.06
2023-05-06T20:23:18.858Z,97536.41
2023-05-06T20:25:48.868Z,97542.21
2023-05-06T20:28:21.255Z,97537.19
2023-05-06T20:31:00.679Z,97535.85
2023-05-06T20:33:31.497Z,97535.34
2023-05-06T20:36:01.872Z,97532.42
2023-05-06T20:38:32.007Z,97534.75
2023-05-06T20:41:02.697Z,97534.97
2023-05-06T20:43:34.876Z,97533.80
2023-05-06T20:46:05.107Z,97536.79
2023-05-06T20:48:35.000Z,97540.86
2023-05-06T20:51:05.072Z,97543.79
2023-05-06T20:53:35.080Z,97545.70
2023-05-06T20:56:07.080Z,97550.42
2023-05-06T20:58:36.935Z,97557.48
2023-05-06T21:01:06.794Z,97563.77
2023-05-06T21:03:36.894Z,97567.92
2023-05-06T21:06:07.045Z,97570.77
2023-05-06T21:08:37.039Z,97570.90
2023-05-06T21:11:06.977Z,97570.92
2023-05-06T21:13:37.013Z,97569.97
2023-05-06T21:16:07.708Z,97575.01
2023-05-06T21:18:38.086Z,97571.79
2023-05-06T21:21:07.970Z,97565.38
2023-05-06T21:23:37.839Z,97567.00
2023-05-06T21:26:07.748Z,97569.83
2023-05-06T21:28:38.175Z,97572.16
2023-05-06T21:31:08.633Z,97576.47
2023-05-06T21:33:38.467Z,97573.16
2023-05-06T21:36:09.257Z,97577.23
2023-05-06T21:38:39.502Z,97577.39
2023-05-06T21:41:09.484Z,97579.66
2023-05-06T21:43:39.618Z,97584.48
2023-05-06T21:46:09.540Z,97583.39
2023-05-06T21:48:39.665Z,97583.69
2023-05-06T21:51:09.447Z,97590.55
2023-05-06T21:53:39.608Z,97596.42
2023-05-06T21:56:09.429Z,97600.73
2023-05-06T21:58:39.359Z,97604.33
2023-05-06T22:01:09.352Z,97603.10
2023-05-06T22:03:39.654Z,97605.96
2023-05-06T22:06:21.962Z,97603.19
2023-05-06T22:08:51.931Z,97608.80
2023-05-06T22:11:23.552Z,97611.77
2023-05-06T22:13:53.412Z,97611.98
2023-05-06T22:16:23.440Z,97617.30
2023-05-06T22:18:53.721Z,97615.16
2023-05-06T22:21:23.675Z,97616.31
2023-05-06T22:23:53.752Z,97619.59
2023-05-06T22:26:23.990Z,97618.48
2023-05-06T22:28:54.110Z,97617.66
2023-05-06T22:31:24.347Z,97614.77
2023-05-06T22:33:57.323Z,97613.62
2023-05-06T22:36:28.868Z,97612.67
2023-05-06T22:38:59.097Z,97608.10
2023-05-06T22:41:29.775Z,97612.53
2023-05-06T22:44:00.910Z,97612.02
2023-05-06T22:46:31.294Z,97615.48
2023-05-06T22:49:01.433Z,97616.19
2023-05-06T22:51:32.919Z,97615.14
2023-05-06T22:54:02.998Z,97614.62
2023-05-06T22:56:33.123Z,97610.39
2023-05-06T22:59:03.416Z,97609.02
2023-05-06T23:01:33.742Z,97610.47
2023-05-06T23:04:03.890Z,97615.82
2023-05-06T23:06:33.889Z,97612.15
2023-05-06T23:09:05.308Z,97609.25
2023-05-06T23:11:35.338Z,97612.45
2023-05-06T23:14:06.344Z,97613.03
2023-05-06T23:16:36.452Z,97614.44
2023-05-06T23:19:06.384Z,97621.20
2023-05-06T23:21:36.186Z,97622.21
2023-05-06T23:24:07.068Z,97622.57
2023-05-06T23:26:37.149Z,97625.15
2023-05-06T23:29:07.213Z,97623.84
2023-05-06T23:31:37.152Z,97625.93
2023-05-06T23:34:07.127Z,97628.54
2023-05-06T23:36:37.115Z,97628.02
2023-05-06T23:39:07.911Z,97628.39
2023-05-06T23:41:37.868Z,97632.61
2023-05-06T23:44:07.743Z,97636.73
2023-05-06T23:46:37.606Z,97636.84
2023-05-06T23:49:07.682Z,97637.98
2023-05-06T23:51:37.514Z,97635.61
2023-05-06T23:54:07.475Z,97634.52
2023-05-06T23:56:37.501Z,97627.84
2023-05-06T23:59:07.507Z,97626.51
